createdAt,value
2017-04-14T00:00:28.729Z,3.80
2017-04-14T00:01:27.985Z,3.80
2017-04-14T00:02:27.229Z,3.80
2017-04-14T00:03:26.473Z,3.80
2017-04-14T00:04:25.692Z,3.80
2017-04-14T00:05:24.893Z,3.80
2017-04-14T00:06:24.832Z,3.80
2017-04-14T00:07:24.056Z,3.80
2017-04-14T00:08:23.330Z,3.80
2017-04-14T00:09:22.536Z,3.80
2017-04-14T00:10:21.854Z,3.80
2017-04-14T00:11:21.798Z,3.80
2017-04-14T00:12:21.005Z,3.80
2017-04-14T00:13:20.190Z,3.80
2017-04-14T00:14:19.409Z,3.80
2017-04-14T00:15:18.595Z,3.80
2017-04-14T00:16:17.810Z,3.80
2017-04-14T00:17:17.836Z,3.70
2017-04-14T00:18:17.045Z,3.80
2017-04-14T00:19:16.218Z,3.70
2017-04-14T00:20:15.749Z,3.70
2017-04-14T00:21:14.923Z,3.70
2017-04-14T00:22:14.164Z,3.70
2017-04-14T00:23:14.108Z,3.60
2017-04-14T00:24:13.322Z,3.70
2017-04-14T00:25:12.516Z,3.60
2017-04-14T00:26:11.733Z,3.60
2017-04-14T00:27:10.924Z,3.60
2017-04-14T00:28:10.909Z,3.60
2017-04-14T00:29:10.112Z,3.70
2017-04-14T00:30:10.033Z,3.60
2017-04-14T00:31:09.245Z,3.70
2017-04-14T00:32:08.469Z,3.70
2017-04-14T00:33:07.660Z,3.70
2017-04-14T00:34:06.896Z,3.70
2017-04-14T00:35:06.076Z,3.70
2017-04-14T00:36:05.256Z,3.60
2017-04-14T00:37:04.521Z,3.60
2017-04-14T00:38:04.003Z,3.60
2017-04-14T00:39:03.299Z,3.60
2017-04-14T00:40:02.497Z,3.50
2017-04-14T00:41:02.052Z,3.50
2017-04-14T00:42:01.224Z,3.50
2017-04-14T00:43:00.396Z,3.40
2017-04-14T00:43:59.638Z,3.40
2017-04-14T00:44:58.820Z,3.40
2017-04-14T00:45:58.002Z,3.30
2017-04-14T00:46:57.185Z,3.30
2017-04-14T00:47:57.132Z,3.30
2017-04-14T00:48:56.341Z,3.30
2017-04-14T00:49:55.578Z,3.30
2017-04-14T00:50:54.783Z,3.30
2017-04-14T00:51:53.993Z,3.20
2017-04-14T00:52:53.934Z,3.30
2017-04-14T00:53:53.121Z,3.30
2017-04-14T00:54:52.313Z,3.30
2017-04-14T00:55:51.836Z,3.30
2017-04-14T00:56:51.045Z,3.30
2017-04-14T00:57:50.232Z,3.30
2017-04-14T00:58:49.407Z,3.30
2017-04-14T00:59:48.681Z,3.30
2017-04-14T01:00:48.614Z,3.20
2017-04-14T01:01:47.912Z,3.20
2017-04-14T01:02:47.873Z,3.10
2017-04-14T01:03:47.066Z,3.00
2017-04-14T01:04:46.237Z,2.90
2017-04-14T01:05:45.421Z,2.80
2017-04-14T01:06:44.640Z,2.70
2017-04-14T01:07:43.859Z,2.60
2017-04-14T01:08:43.048Z,2.60
2017-04-14T01:09:42.270Z,2.60
2017-04-14T01:10:41.452Z,2.60
2017-04-14T01:11:40.711Z,2.50
2017-04-14T01:12:39.908Z,2.50
2017-04-14T01:13:39.889Z,2.50
2017-04-14T01:14:39.105Z,2.50
2017-04-14T01:15:39.053Z,2.40
2017-04-14T01:16:38.304Z,2.40
2017-04-14T01:17:37.517Z,2.40
2017-04-14T01:18:36.742Z,2.40
2017-04-14T01:19:35.973Z,2.30
2017-04-14T01:20:35.188Z,2.30
2017-04-14T01:21:34.390Z,2.30
2017-04-14T01:22:33.610Z,2.30
2017-04-14T01:23:32.941Z,2.20
2017-04-14T01:24:32.179Z,2.20
2017-04-14T01:25:31.424Z,2.20
2017-04-14T01:26:30.624Z,2.20
2017-04-14T01:27:29.849Z,2.20
2017-04-14T01:28:29.854Z,2.10
2017-04-14T01:29:29.056Z,2.10
2017-04-14T01:30:28.268Z,2.10
2017-04-14T01:31:27.489Z,2.10
2017-04-14T01:32:27.448Z,2.10
2017-04-14T01:33:26.658Z,2.10
2017-04-14T01:34:25.872Z,2.10
2017-04-14T01:35:25.092Z,2.10
2017-04-14T01:36:24.301Z,2.10
2017-04-14T01:37:23.846Z,2.10
2017-04-14T01:38:23.054Z,2.20
2017-04-14T01:39:22.264Z,2.20
2017-04-14T01:40:21.521Z,2.10
2017-04-14T01:41:21.457Z,2.10
2017-04-14T01:42:20.652Z,2.10
2017-04-14T01:43:19.887Z,2.10
2017-04-14T01:44:19.086Z,2.10
2017-04-14T01:45:18.301Z,2.10
2017-04-14T01:46:17.500Z,2.00
2017-04-14T01:47:16.721Z,2.00
2017-04-14T01:48:15.917Z,1.90
2017-04-14T01:49:15.140Z,1.90
2017-04-14T01:50:14.337Z,1.90
2017-04-14T01:51:13.558Z,1.90
2017-04-14T01:52:12.769Z,1.90
2017-04-14T01:53:11.986Z,1.90
2017-04-14T01:54:11.925Z,1.80
2017-04-14T01:55:11.163Z,1.80
2017-04-14T01:56:10.389Z,1.80
2017-04-14T01:57:09.585Z,1.90
2017-04-14T01:58:08.795Z,1.90
2017-04-14T01:59:07.997Z,1.90
2017-04-14T02:00:07.229Z,1.90
2017-04-14T02:01:06.456Z,1.90
2017-04-14T02:02:05.652Z,2.00
2017-04-14T02:03:04.881Z,2.00
2017-04-14T02:04:04.837Z,2.00
2017-04-14T02:05:04.048Z,2.00
2017-04-14T02:06:03.285Z,2.10
2017-04-14T02:07:02.647Z,2.10
2017-04-14T02:08:01.845Z,2.10
2017-04-14T02:09:01.837Z,2.10
2017-04-14T02:10:01.092Z,2.10
2017-04-14T02:11:00.301Z,2.10
2017-04-14T02:11:59.521Z,2.10
2017-04-14T02:12:59.081Z,2.10
2017-04-14T02:13:58.280Z,2.10
2017-04-14T02:14:57.484Z,2.10
2017-04-14T02:15:56.682Z,2.10
2017-04-14T02:16:55.872Z,2.10
2017-04-14T02:17:55.816Z,2.20
2017-04-14T02:18:55.046Z,2.20
2017-04-14T02:19:54.267Z,2.20
2017-04-14T02:20:53.484Z,2.20
2017-04-14T02:21:52.682Z,2.20
2017-04-14T02:22:51.904Z,2.20
2017-04-14T02:23:51.101Z,2.10
2017-04-14T02:24:51.072Z,2.00
2017-04-14T02:25:50.381Z,1.90
2017-04-14T02:26:49.577Z,1.90
2017-04-14T02:27:48.778Z,1.70
2017-04-14T02:28:48.717Z,1.70
2017-04-14T02:29:47.947Z,1.70
2017-04-14T02:30:47.177Z,1.60
2017-04-14T02:31:46.368Z,1.60
2017-04-14T02:32:45.566Z,1.60
2017-04-14T02:33:44.770Z,1.60
2017-04-14T02:34:43.968Z,1.60
2017-04-14T02:35:43.912Z,1.60
2017-04-14T02:36:43.353Z,1.70
2017-04-14T02:37:42.561Z,1.70
2017-04-14T02:38:41.781Z,1.70
2017-04-14T02:39:40.975Z,1.70
2017-04-14T02:40:40.916Z,1.70
2017-04-14T02:41:40.129Z,1.70
2017-04-14T02:42:39.361Z,1.70
2017-04-14T02:43:38.568Z,1.70
2017-04-14T02:44:37.772Z,1.60
2017-04-14T02:45:36.985Z,1.60
2017-04-14T02:46:36.189Z,1.50
2017-04-14T02:47:35.440Z,1.50
2017-04-14T02:48:34.656Z,1.50
2017-04-14T02:49:33.909Z,1.40
2017-04-14T02:50:33.120Z,1.40
2017-04-14T02:51:32.315Z,1.30
2017-04-14T02:52:31.526Z,1.30
2017-04-14T02:53:31.225Z,1.30
2017-04-14T02:54:30.685Z,1.30
2017-04-14T02:55:29.925Z,1.30
2017-04-14T02:56:29.137Z,1.30
2017-04-14T02:57:29.092Z,1.30
2017-04-14T02:58:28.297Z,1.40
2017-04-14T02:59:27.528Z,1.40
2017-04-14T03:00:26.844Z,1.40
2017-04-14T03:01:26.109Z,1.40
2017-04-14T03:02:25.309Z,1.40
2017-04-14T03:03:24.524Z,1.40
2017-04-14T03:04:23.731Z,1.50
2017-04-14T03:05:23.721Z,1.50
2017-04-14T03:06:22.945Z,1.50
2017-04-14T03:07:22.144Z,1.50
2017-04-14T03:08:22.105Z,1.50
2017-04-14T03:09:21.329Z,1.50
2017-04-14T03:10:20.538Z,1.40
2017-04-14T03:11:19.794Z,1.40
2017-04-14T03:12:19.076Z,1.40
2017-04-14T03:13:18.282Z,1.40
2017-04-14T03:14:17.501Z,1.40
2017-04-14T03:15:16.724Z,1.20
2017-04-14T03:16:15.920Z,1.20
2017-04-14T03:17:15.160Z,1.10
2017-04-14T03:18:14.711Z,1.00
2017-04-14T03:19:13.952Z,1.00
2017-04-14T03:20:13.145Z,0.90
2017-04-14T03:21:12.341Z,0.90
2017-04-14T03:22:11.533Z,0.90
2017-04-14T03:23:10.783Z,0.90
2017-04-14T03:24:10.038Z,0.80
2017-04-14T03:25:09.993Z,0.80
2017-04-14T03:26:09.216Z,0.90
2017-04-14T03:27:08.421Z,0.90
2017-04-14T03:28:08.362Z,0.90
2017-04-14T03:29:07.563Z,0.90
2017-04-14T03:30:07.065Z,1.00
2017-04-14T03:31:06.341Z,1.00
2017-04-14T03:32:05.596Z,1.00
2017-04-14T03:33:04.797Z,1.00
2017-04-14T03:34:04.029Z,1.10
2017-04-14T03:35:03.237Z,1.10
2017-04-14T03:36:02.472Z,1.10
2017-04-14T03:37:02.433Z,1.20
2017-04-14T03:38:01.633Z,1.20
2017-04-14T03:39:01.612Z,1.20
2017-04-14T03:40:00.816Z,1.20
2017-04-14T03:41:00.049Z,1.20
2017-04-14T03:41:59.280Z,1.30
2017-04-14T03:42:58.489Z,1.30
2017-04-14T03:43:58.436Z,1.20
2017-04-14T03:44:57.634Z,1.10
2017-04-14T03:45:56.913Z,1.00
2017-04-14T03:46:56.076Z,1.00
2017-04-14T03:47:55.520Z,0.90
2017-04-14T03:48:54.697Z,0.90
2017-04-14T03:49:53.890Z,0.90
2017-04-14T03:50:53.065Z,0.90
2017-04-14T03:51:52.233Z,0.90
2017-04-14T03:52:51.405Z,0.90
2017-04-14T03:53:50.625Z,0.90
2017-04-14T03:54:49.794Z,0.90
2017-04-14T03:55:48.982Z,0.90
2017-04-14T03:56:48.169Z,0.90
2017-04-14T03:57:47.347Z,0.90
2017-04-14T03:58:46.533Z,0.90
2017-04-14T03:59:45.754Z,0.80
2017-04-14T04:00:44.929Z,0.80
2017-04-14T04:01:44.096Z,0.80
2017-04-14T04:02:43.270Z,0.80
2017-04-14T04:03:43.189Z,0.80
2017-04-14T04:04:42.365Z,0.80
2017-04-14T04:05:42.535Z,0.90
2017-04-14T04:06:42.453Z,0.80
2017-04-14T04:07:41.637Z,0.90
2017-04-14T04:08:40.821Z,0.90
2017-04-14T04:09:40.021Z,0.90
2017-04-14T04:10:39.198Z,0.90
2017-04-14T04:11:38.407Z,1.00
2017-04-14T04:12:37.610Z,0.90
2017-04-14T04:13:36.780Z,1.00
2017-04-14T04:14:35.952Z,1.00
2017-04-14T04:15:35.865Z,1.00
2017-04-14T04:16:37.961Z,1.00
2017-04-14T04:17:37.149Z,1.00
2017-04-14T04:18:36.337Z,1.00
2017-04-14T04:19:35.520Z,1.00
2017-04-14T04:20:34.696Z,1.00
2017-04-14T04:21:33.897Z,1.00
2017-04-14T04:22:33.129Z,1.00
2017-04-14T04:23:32.404Z,1.00
2017-04-14T04:24:31.581Z,1.00
2017-04-14T04:25:30.761Z,1.00
2017-04-14T04:26:30.223Z,1.00
2017-04-14T04:27:29.436Z,1.00
2017-04-14T04:28:28.950Z,1.10
2017-04-14T04:29:28.145Z,1.10
2017-04-14T04:30:27.331Z,1.10
2017-04-14T04:31:30.724Z,1.10
2017-04-14T04:32:35.229Z,1.10
2017-04-14T04:33:40.496Z,1.00
2017-04-14T04:34:39.669Z,0.90
2017-04-14T04:35:38.845Z,0.90
2017-04-14T04:36:38.020Z,0.80
2017-04-14T04:37:37.189Z,0.80
2017-04-14T04:38:36.381Z,0.70
2017-04-14T04:39:35.595Z,0.70
2017-04-14T04:40:34.787Z,0.70
2017-04-14T04:41:33.995Z,0.70
2017-04-14T04:42:33.178Z,0.70
2017-04-14T04:43:32.361Z,0.70
2017-04-14T04:44:31.537Z,0.70
2017-04-14T04:45:30.762Z,0.80
2017-04-14T04:46:29.943Z,0.80
2017-04-14T04:47:29.129Z,0.90
2017-04-14T04:48:28.307Z,0.90
2017-04-14T04:49:27.485Z,0.90
2017-04-14T04:50:26.660Z,1.00
2017-04-14T04:51:25.877Z,1.00
2017-04-14T04:52:25.055Z,1.10
2017-04-14T04:53:24.981Z,1.10
2017-04-14T04:54:24.161Z,1.20
2017-04-14T04:55:23.571Z,1.20
2017-04-14T04:56:22.789Z,1.20
2017-04-14T04:57:22.296Z,1.20
2017-04-14T04:58:21.476Z,1.20
2017-04-14T04:59:20.672Z,1.30
2017-04-14T05:00:20.601Z,1.30
2017-04-14T05:01:19.790Z,1.30
2017-04-14T05:02:18.974Z,1.30
2017-04-14T05:03:18.172Z,1.30
2017-04-14T05:04:18.091Z,1.30
2017-04-14T05:05:17.276Z,1.30
2017-04-14T05:06:17.197Z,1.40
2017-04-14T05:07:16.374Z,1.40
2017-04-14T05:08:15.564Z,1.50
2017-04-14T05:09:15.005Z,1.60
2017-04-14T05:10:14.177Z,1.70
2017-04-14T05:11:13.405Z,1.80
2017-04-14T05:12:12.588Z,1.90
2017-04-14T05:13:11.777Z,2.10
2017-04-14T05:14:10.949Z,2.20
2017-04-14T05:15:10.144Z,2.40
2017-04-14T05:16:09.338Z,2.40
2017-04-14T05:17:08.524Z,2.50
2017-04-14T05:18:07.702Z,2.60
2017-04-14T05:19:06.894Z,2.70
2017-04-14T05:20:06.096Z,2.70
2017-04-14T05:21:05.325Z,2.80
2017-04-14T05:22:04.574Z,2.80
2017-04-14T05:23:03.784Z,2.90
2017-04-14T05:24:02.972Z,3.10
2017-04-14T05:25:02.202Z,3.30
2017-04-14T05:26:01.377Z,3.50
2017-04-14T05:27:00.589Z,3.70
2017-04-14T05:27:59.765Z,3.90
2017-04-14T05:28:58.943Z,4.20
2017-04-14T05:29:58.121Z,4.40
2017-04-14T05:30:57.348Z,4.50
2017-04-14T05:31:57.276Z,4.50
2017-04-14T05:32:56.480Z,4.60
2017-04-14T05:33:55.654Z,4.80
2017-04-14T05:34:54.824Z,4.90
2017-04-14T05:35:54.741Z,5.00
2017-04-14T05:36:53.909Z,5.30
2017-04-14T05:37:53.832Z,5.40
2017-04-14T05:38:53.025Z,5.60
2017-04-14T05:39:52.207Z,5.70
2017-04-14T05:40:51.384Z,5.80
2017-04-14T05:41:51.289Z,5.80
2017-04-14T05:42:51.225Z,5.90
2017-04-14T05:43:50.398Z,6.10
2017-04-14T05:44:49.625Z,6.20
2017-04-14T05:45:48.804Z,6.20
2017-04-14T05:46:47.981Z,6.30
2017-04-14T05:47:47.157Z,6.30
2017-04-14T05:48:46.337Z,6.30
2017-04-14T05:49:45.552Z,6.40
2017-04-14T05:50:45.052Z,6.50
2017-04-14T05:51:44.231Z,6.50
2017-04-14T05:52:43.400Z,6.60
2017-04-14T05:53:42.602Z,6.60
2017-04-14T05:54:41.765Z,6.70
2017-04-14T05:55:40.978Z,6.70
2017-04-14T05:56:40.182Z,6.70
2017-04-14T05:57:39.357Z,6.80
2017-04-14T05:58:38.541Z,7.00
2017-04-14T05:59:37.709Z,7.20
2017-04-14T06:00:36.917Z,7.50
2017-04-14T06:01:36.097Z,7.80
2017-04-14T06:02:35.301Z,8.10
2017-04-14T06:03:34.469Z,8.40
2017-04-14T06:04:33.736Z,8.70
2017-04-14T06:05:32.909Z,8.80
2017-04-14T06:06:32.080Z,9.10
2017-04-14T06:07:31.284Z,9.30
2017-04-14T06:08:30.484Z,9.50
2017-04-14T06:09:29.669Z,9.60
2017-04-14T06:10:28.853Z,9.90
2017-04-14T06:11:28.040Z,10.10
2017-04-14T06:12:27.221Z,10.30
2017-04-14T06:13:26.440Z,10.50
2017-04-14T06:14:25.648Z,10.50
2017-04-14T06:15:24.833Z,10.60
2017-04-14T06:16:24.017Z,10.40
2017-04-14T06:17:23.204Z,10.30
2017-04-14T06:18:22.421Z,10.50
2017-04-14T06:19:21.611Z,10.80
2017-04-14T06:20:20.829Z,11.10
2017-04-14T06:21:20.020Z,11.20
2017-04-14T06:22:19.210Z,11.50
2017-04-14T06:23:18.397Z,11.70
2017-04-14T06:24:17.588Z,12.00
2017-04-14T06:25:16.773Z,12.20
2017-04-14T06:26:16.309Z,12.50
2017-04-14T06:27:15.497Z,12.60
2017-04-14T06:28:14.680Z,12.80
2017-04-14T06:29:13.865Z,12.80
2017-04-14T06:30:13.110Z,12.90
2017-04-14T06:31:12.299Z,13.20
2017-04-14T06:32:11.529Z,13.40
2017-04-14T06:33:10.709Z,13.50
2017-04-14T06:34:09.899Z,13.80
2017-04-14T06:35:09.077Z,13.90
2017-04-14T06:36:08.253Z,14.10
2017-04-14T06:37:08.182Z,14.20
2017-04-14T06:38:07.722Z,14.40
2017-04-14T06:39:07.659Z,14.40
2017-04-14T06:40:07.597Z,14.50
2017-04-14T06:41:06.785Z,14.60
2017-04-14T06:42:05.977Z,14.60
2017-04-14T06:43:05.172Z,14.60
2017-04-14T06:44:05.124Z,14.60
2017-04-14T06:45:04.329Z,14.70
2017-04-14T06:46:03.508Z,14.60
2017-04-14T06:47:02.700Z,14.80
2017-04-14T06:48:01.885Z,15.10
2017-04-14T06:49:01.084Z,15.20
2017-04-14T06:50:00.305Z,15.50
2017-04-14T06:50:59.897Z,15.70
2017-04-14T06:51:59.108Z,15.90
2017-04-14T06:52:58.339Z,15.70
2017-04-14T06:53:57.560Z,15.90
2017-04-14T06:54:56.746Z,16.20
2017-04-14T06:55:55.973Z,16.50
2017-04-14T06:56:55.152Z,16.60
2017-04-14T06:57:54.333Z,16.70
2017-04-14T06:58:53.534Z,16.90
2017-04-14T06:59:52.717Z,17.00
2017-04-14T07:00:51.910Z,17.10
2017-04-14T07:01:51.126Z,17.00
2017-04-14T07:02:54.524Z,16.80
2017-04-14T07:03:54.325Z,16.60
2017-04-14T07:04:53.830Z,16.20
2017-04-14T07:05:53.045Z,15.90
2017-04-14T07:06:52.266Z,15.50
2017-04-14T07:07:51.452Z,15.40
2017-04-14T07:08:50.692Z,15.60
2017-04-14T07:09:49.879Z,15.70
2017-04-14T07:10:49.064Z,15.70
2017-04-14T07:11:48.256Z,15.70
2017-04-14T07:12:47.466Z,15.80
2017-04-14T07:13:46.673Z,15.90
2017-04-14T07:14:45.860Z,15.90
2017-04-14T07:15:45.064Z,16.00
2017-04-14T07:16:44.288Z,16.00
2017-04-14T07:17:43.516Z,16.10
2017-04-14T07:18:43.475Z,16.20
2017-04-14T07:19:42.677Z,16.30
2017-04-14T07:20:41.865Z,16.30
2017-04-14T07:21:41.059Z,16.20
2017-04-14T07:22:40.240Z,16.30
2017-04-14T07:23:39.421Z,16.30
2017-04-14T07:24:38.918Z,16.60
2017-04-14T07:25:38.109Z,16.60
2017-04-14T07:26:37.297Z,16.60
2017-04-14T07:27:36.491Z,16.50
2017-04-14T07:28:35.706Z,16.60
2017-04-14T07:29:35.635Z,16.80
2017-04-14T07:30:34.858Z,17.20
2017-04-14T07:31:34.061Z,17.40
2017-04-14T07:32:33.265Z,17.40
2017-04-14T07:33:33.198Z,17.40
2017-04-14T07:34:32.379Z,17.20
2017-04-14T07:35:31.569Z,17.10
2017-04-14T07:36:30.801Z,17.40
2017-04-14T07:37:29.979Z,17.60
2017-04-14T07:38:29.176Z,17.60
2017-04-14T07:39:28.360Z,17.30
2017-04-14T07:40:27.554Z,17.10
2017-04-14T07:41:26.742Z,17.10
2017-04-14T07:42:26.177Z,17.10
2017-04-14T07:43:25.373Z,17.10
2017-04-14T07:44:25.305Z,17.00
2017-04-14T07:45:24.556Z,16.70
2017-04-14T07:46:23.732Z,16.50
2017-04-14T07:47:22.925Z,16.30
2017-04-14T07:48:22.147Z,16.20
2017-04-14T07:49:21.328Z,16.00
2017-04-14T07:50:20.505Z,16.00
2017-04-14T07:51:19.712Z,15.90
2017-04-14T07:52:18.898Z,15.90
2017-04-14T07:53:18.078Z,16.00
2017-04-14T07:54:17.332Z,16.00
2017-04-14T07:55:16.566Z,16.00
2017-04-14T07:56:15.754Z,15.90
2017-04-14T07:57:14.932Z,16.00
2017-04-14T07:58:14.121Z,15.90
2017-04-14T07:59:13.316Z,15.80
2017-04-14T08:00:12.594Z,16.00
2017-04-14T08:01:11.828Z,16.00
2017-04-14T08:02:11.013Z,16.20
2017-04-14T08:03:10.205Z,16.60
2017-04-14T08:04:09.384Z,16.80
2017-04-14T08:05:08.584Z,16.90
2017-04-14T08:06:07.792Z,17.00
2017-04-14T08:07:06.981Z,17.10
2017-04-14T08:08:06.170Z,17.40
2017-04-14T08:09:05.868Z,17.40
2017-04-14T08:10:05.072Z,17.10
2017-04-14T08:11:05.041Z,17.00
2017-04-14T08:12:04.297Z,17.10
2017-04-14T08:13:03.557Z,17.00
2017-04-14T08:14:02.769Z,17.00
2017-04-14T08:15:01.976Z,16.90
2017-04-14T08:16:01.172Z,16.60
2017-04-14T08:17:00.388Z,16.50
2017-04-14T08:17:59.594Z,16.70
2017-04-14T08:18:58.777Z,16.90
2017-04-14T08:19:57.979Z,17.20
2017-04-14T08:20:57.170Z,17.30
2017-04-14T08:21:56.359Z,17.60
2017-04-14T08:22:55.545Z,17.80
2017-04-14T08:23:54.778Z,18.00
2017-04-14T08:24:53.980Z,18.10
2017-04-14T08:25:53.172Z,18.10
2017-04-14T08:26:52.370Z,17.70
2017-04-14T08:27:52.294Z,17.70
2017-04-14T08:28:52.574Z,17.70
2017-04-14T08:29:53.259Z,17.60
2017-04-14T08:30:52.492Z,17.40
2017-04-14T08:31:51.668Z,17.30
2017-04-14T08:32:50.853Z,17.20
2017-04-14T08:33:50.047Z,17.50
2017-04-14T08:34:49.236Z,17.60
2017-04-14T08:35:48.516Z,17.80
2017-04-14T08:36:47.713Z,17.70
2017-04-14T08:37:46.934Z,17.50
2017-04-14T08:38:46.129Z,17.20
2017-04-14T08:39:45.333Z,17.10
2017-04-14T08:40:45.268Z,17.20
2017-04-14T08:41:44.484Z,17.20
2017-04-14T08:42:43.680Z,16.90
2017-04-14T08:43:42.882Z,16.80
2017-04-14T08:44:42.064Z,17.10
2017-04-14T08:45:41.253Z,17.30
2017-04-14T08:46:40.437Z,17.50
2017-04-14T08:47:39.652Z,17.50
2017-04-14T08:48:38.834Z,17.30
2017-04-14T08:49:38.021Z,17.20
2017-04-14T08:50:37.678Z,17.30
2017-04-14T08:51:36.852Z,17.50
2017-04-14T08:52:36.036Z,17.60
2017-04-14T08:53:35.251Z,17.60
2017-04-14T08:54:34.441Z,17.50
2017-04-14T08:55:33.644Z,17.30
2017-04-14T08:56:32.837Z,17.20
2017-04-14T08:57:32.025Z,17.30
2017-04-14T08:58:31.217Z,17.20
2017-04-14T08:59:30.446Z,17.20
2017-04-14T09:00:29.640Z,17.20
2017-04-14T09:01:28.849Z,17.00
2017-04-14T09:02:28.032Z,17.20
2017-04-14T09:03:27.224Z,17.30
2017-04-14T09:04:26.449Z,17.50
2017-04-14T09:05:25.670Z,17.70
2017-04-14T09:06:24.988Z,17.40
2017-04-14T09:07:24.180Z,17.40
2017-04-14T09:08:23.369Z,17.50
2017-04-14T09:09:22.552Z,17.80
2017-04-14T09:10:21.749Z,18.00
2017-04-14T09:11:20.941Z,17.80
2017-04-14T09:12:20.129Z,17.80
2017-04-14T09:13:19.313Z,17.90
2017-04-14T09:14:18.510Z,17.80
2017-04-14T09:15:18.471Z,17.90
2017-04-14T09:16:17.658Z,17.90
2017-04-14T09:17:16.832Z,17.90
2017-04-14T09:18:16.009Z,18.10
2017-04-14T09:19:15.193Z,17.90
2017-04-14T09:20:14.378Z,17.90
2017-04-14T09:21:13.566Z,17.90
2017-04-14T09:22:12.736Z,17.90
2017-04-14T09:23:12.664Z,18.10
2017-04-14T09:24:11.852Z,18.10
2017-04-14T09:25:11.061Z,18.20
2017-04-14T09:26:10.298Z,18.10
2017-04-14T09:27:09.488Z,18.30
2017-04-14T09:28:08.672Z,18.60
2017-04-14T09:29:07.853Z,18.60
2017-04-14T09:30:07.089Z,18.40
2017-04-14T09:31:06.288Z,18.60
2017-04-14T09:32:05.529Z,18.40
2017-04-14T09:33:05.485Z,17.90
2017-04-14T09:34:04.676Z,17.70
2017-04-14T09:35:03.866Z,17.70
2017-04-14T09:36:03.045Z,17.70
2017-04-14T09:37:02.224Z,18.10
2017-04-14T09:38:01.449Z,18.20
2017-04-14T09:39:00.892Z,18.00
2017-04-14T09:40:00.077Z,17.90
2017-04-14T09:40:59.312Z,17.90
2017-04-14T09:41:59.233Z,18.00
2017-04-14T09:42:58.421Z,18.00
2017-04-14T09:43:57.662Z,17.90
2017-04-14T09:44:56.841Z,17.70
2017-04-14T09:45:56.044Z,17.50
2017-04-14T09:46:55.244Z,17.20
2017-04-14T09:47:54.440Z,17.10
2017-04-14T09:48:53.756Z,16.90
2017-04-14T09:49:53.064Z,16.70
2017-04-14T09:50:53.092Z,16.80
2017-04-14T09:51:52.385Z,16.50
2017-04-14T09:52:51.568Z,16.40
2017-04-14T09:53:50.748Z,16.60
2017-04-14T09:54:49.942Z,16.70
2017-04-14T09:55:49.124Z,16.90
2017-04-14T09:56:48.316Z,17.00
2017-04-14T09:57:47.519Z,17.10
2017-04-14T09:58:46.717Z,16.90
2017-04-14T09:59:45.900Z,16.70
2017-04-14T10:00:45.084Z,16.50
2017-04-14T10:01:44.272Z,16.70
2017-04-14T10:02:43.491Z,16.60
2017-04-14T10:03:43.153Z,16.80
2017-04-14T10:04:42.354Z,17.10
2017-04-14T10:05:41.544Z,17.50
2017-04-14T10:06:40.739Z,17.80
2017-04-14T10:07:39.924Z,18.10
2017-04-14T10:08:39.102Z,18.70
2017-04-14T10:09:38.332Z,19.30
2017-04-14T10:10:37.517Z,19.30
2017-04-14T10:11:36.708Z,19.00
2017-04-14T10:12:35.897Z,19.40
2017-04-14T10:13:35.078Z,19.90
2017-04-14T10:14:34.266Z,19.50
2017-04-14T10:15:33.447Z,19.20
2017-04-14T10:16:32.674Z,18.80
2017-04-14T10:17:32.901Z,18.40
2017-04-14T10:18:32.156Z,18.50
2017-04-14T10:19:32.093Z,18.40
2017-04-14T10:20:31.281Z,18.00
2017-04-14T10:21:30.493Z,18.10
2017-04-14T10:22:29.685Z,17.90
2017-04-14T10:23:28.861Z,17.90
2017-04-14T10:24:28.078Z,17.60
2017-04-14T10:25:27.272Z,17.40
2017-04-14T10:26:26.457Z,17.30
2017-04-14T10:27:25.632Z,17.50
2017-04-14T10:28:24.821Z,17.30
2017-04-14T10:29:24.009Z,17.20
2017-04-14T10:30:23.236Z,17.40
2017-04-14T10:31:22.413Z,17.80
2017-04-14T10:32:21.647Z,18.30
2017-04-14T10:33:21.079Z,18.50
2017-04-14T10:34:20.277Z,18.70
2017-04-14T10:35:19.797Z,18.90
2017-04-14T10:36:19.022Z,19.20
2017-04-14T10:37:18.214Z,19.40
2017-04-14T10:38:18.151Z,19.50
2017-04-14T10:39:17.349Z,19.50
2017-04-14T10:40:16.528Z,19.40
2017-04-14T10:41:15.717Z,19.50
2017-04-14T10:42:14.980Z,19.10
2017-04-14T10:43:14.167Z,18.60
2017-04-14T10:44:13.332Z,18.70
2017-04-14T10:45:12.525Z,18.90
2017-04-14T10:46:12.461Z,19.10
2017-04-14T10:47:11.638Z,19.50
2017-04-14T10:48:11.220Z,19.50
2017-04-14T10:49:10.432Z,19.60
2017-04-14T10:50:09.608Z,19.50
2017-04-14T10:51:08.791Z,19.70
2017-04-14T10:52:07.993Z,19.80
2017-04-14T10:53:07.190Z,19.60
2017-04-14T10:54:06.406Z,19.30
2017-04-14T10:55:05.598Z,18.90
2017-04-14T10:56:04.796Z,18.70
2017-04-14T10:57:03.992Z,18.80
2017-04-14T10:58:03.916Z,18.80
2017-04-14T10:59:03.101Z,18.80
2017-04-14T11:00:02.300Z,18.70
2017-04-14T11:01:01.541Z,18.80
2017-04-14T11:02:00.738Z,18.60
2017-04-14T11:02:59.934Z,18.30
2017-04-14T11:03:59.868Z,17.90
2017-04-14T11:04:59.078Z,17.70
2017-04-14T11:05:58.305Z,17.70
2017-04-14T11:06:57.485Z,17.30
2017-04-14T11:07:56.682Z,17.30
2017-04-14T11:08:55.857Z,17.10
2017-04-14T11:09:55.785Z,16.90
2017-04-14T11:10:54.966Z,16.90
2017-04-14T11:11:54.207Z,16.70
2017-04-14T11:12:53.404Z,16.50
2017-04-14T11:13:52.588Z,16.40
2017-04-14T11:14:51.789Z,16.40
2017-04-14T11:15:50.974Z,16.20
2017-04-14T11:16:50.145Z,16.30
2017-04-14T11:17:49.358Z,16.50
2017-04-14T11:18:48.541Z,16.90
2017-04-14T11:19:47.763Z,17.20
2017-04-14T11:20:46.948Z,17.50
2017-04-14T11:21:46.128Z,17.50
2017-04-14T11:22:46.057Z,17.70
2017-04-14T11:23:45.325Z,17.80
2017-04-14T11:24:44.500Z,18.00
2017-04-14T11:25:44.427Z,18.10
2017-04-14T11:26:43.618Z,17.90
2017-04-14T11:27:42.800Z,17.60
2017-04-14T11:28:41.990Z,17.30
2017-04-14T11:29:41.201Z,17.10
2017-04-14T11:30:40.388Z,16.80
2017-04-14T11:31:39.565Z,16.60
2017-04-14T11:32:38.752Z,16.30
2017-04-14T11:33:37.921Z,16.10
2017-04-14T11:34:37.113Z,15.90
2017-04-14T11:35:36.336Z,15.90
2017-04-14T11:36:35.525Z,15.80
2017-04-14T11:37:34.696Z,15.70
2017-04-14T11:38:34.393Z,15.50
2017-04-14T11:39:33.577Z,15.30
2017-04-14T11:40:32.759Z,15.30
2017-04-14T11:41:31.983Z,15.30
2017-04-14T11:42:31.169Z,15.30
2017-04-14T11:43:30.399Z,15.10
2017-04-14T11:44:29.590Z,15.10
2017-04-14T11:45:28.776Z,15.00
2017-04-14T11:46:28.696Z,15.00
2017-04-14T11:47:27.908Z,15.10
2017-04-14T11:48:27.094Z,15.30
2017-04-14T11:49:26.277Z,15.50
2017-04-14T11:50:25.456Z,15.70
2017-04-14T11:51:24.641Z,15.80
2017-04-14T11:52:23.821Z,15.80
2017-04-14T11:53:23.026Z,15.80
2017-04-14T11:54:22.261Z,15.80
2017-04-14T11:55:21.463Z,16.00
2017-04-14T11:56:20.719Z,16.40
2017-04-14T11:57:19.969Z,16.80
2017-04-14T11:58:19.181Z,17.20
2017-04-14T11:59:18.398Z,17.60
2017-04-14T12:00:17.653Z,17.80
2017-04-14T12:01:16.864Z,18.20
2017-04-14T12:02:16.048Z,18.30
2017-04-14T12:03:15.308Z,18.10
2017-04-14T12:04:14.484Z,17.90
2017-04-14T12:05:13.930Z,17.50
2017-04-14T12:06:13.114Z,17.40
2017-04-14T12:07:12.306Z,17.30
2017-04-14T12:08:11.536Z,17.20
2017-04-14T12:09:11.045Z,17.10
2017-04-14T12:10:10.269Z,16.80
2017-04-14T12:11:09.507Z,16.50
2017-04-14T12:12:09.441Z,16.30
2017-04-14T12:13:08.613Z,16.20
2017-04-14T12:14:07.812Z,16.00
2017-04-14T12:15:07.030Z,15.90
2017-04-14T12:16:06.241Z,16.00
2017-04-14T12:17:05.445Z,16.00
2017-04-14T12:18:04.623Z,16.00
2017-04-14T12:19:04.126Z,16.00
2017-04-14T12:20:03.340Z,16.10
2017-04-14T12:21:02.530Z,15.90
2017-04-14T12:22:01.729Z,16.00
2017-04-14T12:23:00.971Z,16.20
2017-04-14T12:24:00.265Z,16.40
2017-04-14T12:24:59.456Z,16.80
2017-04-14T12:25:58.643Z,16.90
2017-04-14T12:26:57.820Z,16.90
2017-04-14T12:27:56.996Z,16.80
2017-04-14T12:28:56.285Z,16.80
2017-04-14T12:29:55.473Z,16.60
2017-04-14T12:30:54.700Z,16.30
2017-04-14T12:31:53.893Z,16.20
2017-04-14T12:32:53.075Z,16.10
2017-04-14T12:33:52.256Z,16.00
2017-04-14T12:34:51.480Z,16.00
2017-04-14T12:35:50.660Z,15.90
2017-04-14T12:36:49.837Z,15.80
2017-04-14T12:37:49.299Z,15.80
2017-04-14T12:38:48.487Z,15.70
2017-04-14T12:39:47.919Z,15.60
2017-04-14T12:40:47.172Z,15.50
2017-04-14T12:41:46.358Z,15.40
2017-04-14T12:42:45.540Z,15.40
2017-04-14T12:43:44.729Z,15.50
2017-04-14T12:44:43.934Z,15.60
2017-04-14T12:45:43.113Z,15.70
2017-04-14T12:46:42.336Z,15.70
2017-04-14T12:47:41.512Z,15.50
2017-04-14T12:48:40.702Z,15.50
2017-04-14T12:49:39.901Z,15.50
2017-04-14T12:50:39.089Z,15.50
2017-04-14T12:51:38.277Z,15.40
2017-04-14T12:52:37.485Z,15.50
2017-04-14T12:53:36.664Z,15.60
2017-04-14T12:54:36.585Z,15.60
2017-04-14T12:55:35.771Z,15.70